createdAt,value
2017-02-17T00:01:25.334Z,0
2017-02-17T00:03:32.691Z,0
2017-02-17T00:05:34.883Z,0
2017-02-17T00:07:42.510Z,0
2017-02-17T00:09:54.769Z,0
2017-02-17T00:11:57.227Z,0
2017-02-17T00:14:04.632Z,0
2017-02-17T00:16:06.982Z,0
2017-02-17T00:18:14.357Z,0
2017-02-17T00:20:11.877Z,0
2017-02-17T00:22:16.937Z,0
2017-02-17T00:24:19.171Z,0
2017-02-17T00:26:16.587Z,0
2017-02-17T00:28:13.854Z,0
2017-02-17T00:30:06.338Z,0
2017-02-17T00:32:08.748Z,0
2017-02-17T00:34:06.050Z,0
2017-02-17T00:36:03.943Z,0
2017-02-17T00:38:06.385Z,0
2017-02-17T00:40:08.607Z,0
2017-02-17T00:42:05.998Z,0
2017-02-17T00:44:03.209Z,0
2017-02-17T00:46:00.416Z,0
2017-02-17T00:47:52.681Z,0
2017-02-17T00:50:00.063Z,0
2017-02-17T00:52:02.281Z,0
2017-02-17T00:54:14.475Z,0
2017-02-17T00:56:16.951Z,0
2017-02-17T00:58:19.179Z,0
2017-02-17T01:00:31.432Z,0
2017-02-17T01:02:28.948Z,0
2017-02-17T01:04:36.144Z,0
2017-02-17T01:06:33.519Z,0
2017-02-17T01:08:30.713Z,0
2017-02-17T01:10:38.641Z,0
2017-02-17T01:12:36.573Z,0
2017-02-17T01:14:38.955Z,0
2017-02-17T01:16:26.250Z,0
2017-02-17T01:18:28.559Z,0
2017-02-17T01:20:30.829Z,0
2017-02-17T01:22:28.263Z,0
2017-02-17T01:24:35.473Z,0
2017-02-17T01:26:37.676Z,0
2017-02-17T01:28:29.998Z,0
2017-02-17T01:30:27.203Z,0
2017-02-17T01:32:19.374Z,0
2017-02-17T01:34:21.627Z,0
2017-02-17T01:36:24.026Z,0
2017-02-17T01:38:21.255Z,0
2017-02-17T01:40:18.466Z,0
2017-02-17T01:42:00.895Z,0
2017-02-17T01:43:58.327Z,0
2017-02-17T01:46:11.272Z,0
2017-02-17T01:48:03.759Z,0
2017-02-17T01:50:06.136Z,0
2017-02-17T01:52:18.470Z,0
2017-02-17T01:54:16.033Z,0
2017-02-17T01:56:08.399Z,0
2017-02-17T01:58:05.653Z,0
2017-02-17T02:00:07.960Z,0
2017-02-17T02:02:05.401Z,0
2017-02-17T02:04:12.801Z,0
2017-02-17T02:06:25.029Z,0
2017-02-17T02:08:27.449Z,0
2017-02-17T02:10:39.740Z,0
2017-02-17T02:12:52.049Z,0
2017-02-17T02:14:49.364Z,0
2017-02-17T02:16:46.853Z,0
2017-02-17T02:18:44.422Z,0
2017-02-17T02:20:42.158Z,0
2017-02-17T02:22:49.348Z,0
2017-02-17T02:24:36.677Z,0
2017-02-17T02:26:38.985Z,0
2017-02-17T02:28:26.202Z,0
2017-02-17T02:30:38.490Z,0
2017-02-17T02:32:30.797Z,0
2017-02-17T02:34:28.172Z,0
2017-02-17T02:36:30.406Z,0
2017-02-17T02:38:37.726Z,0
2017-02-17T02:40:45.079Z,0
2017-02-17T02:42:47.658Z,0
2017-02-17T02:44:49.919Z,0
2017-02-17T02:46:47.242Z,0
2017-02-17T02:48:49.643Z,0
2017-02-17T02:50:46.922Z,0
2017-02-17T02:52:39.425Z,0
2017-02-17T02:54:37.304Z,0
2017-02-17T02:56:24.832Z,0
2017-02-17T02:58:22.186Z,0
2017-02-17T03:00:29.466Z,0
2017-02-17T03:02:31.767Z,0
2017-02-17T03:04:24.183Z,0
2017-02-17T03:06:21.542Z,0
2017-02-17T03:08:13.731Z,0
2017-02-17T03:10:10.936Z,0
2017-02-17T03:11:53.323Z,0
2017-02-17T03:13:55.549Z,0
2017-02-17T03:16:02.736Z,0
2017-02-17T03:17:50.158Z,0
2017-02-17T03:19:57.346Z,0
2017-02-17T03:21:54.686Z,0
2017-02-17T03:23:47.054Z,0
2017-02-17T03:25:44.284Z,0
2017-02-17T03:27:41.820Z,0
2017-02-17T03:29:39.520Z,0
2017-02-17T03:31:36.787Z,0
2017-02-17T03:33:39.016Z,0
2017-02-17T03:35:41.281Z,0
2017-02-17T03:37:40.213Z,0
2017-02-17T03:39:37.518Z,0
2017-02-17T03:41:44.935Z,0
2017-02-17T03:43:52.366Z,0
2017-02-17T03:45:59.624Z,0
2017-02-17T03:47:51.985Z,0
2017-02-17T03:50:04.270Z,0
2017-02-17T03:51:56.678Z,0
2017-02-17T03:54:03.829Z,0
2017-02-17T03:56:06.240Z,0
2017-02-17T03:58:13.492Z,0
2017-02-17T04:00:20.885Z,0
2017-02-17T04:02:13.363Z,0
2017-02-17T04:04:23.007Z,0
2017-02-17T04:06:20.247Z,0
2017-02-17T04:08:17.523Z,0
2017-02-17T04:10:19.684Z,0
2017-02-17T04:12:07.020Z,0
2017-02-17T04:14:14.425Z,0
2017-02-17T04:16:11.845Z,0
2017-02-17T04:18:14.005Z,0
2017-02-17T04:20:16.381Z,0
2017-02-17T04:22:14.022Z,0
2017-02-17T04:24:16.169Z,0
2017-02-17T04:26:13.375Z,0
2017-02-17T04:28:15.663Z,0
2017-02-17T04:30:12.979Z,0
2017-02-17T04:32:15.174Z,0
2017-02-17T04:34:07.475Z,0
2017-02-17T04:35:54.935Z,0
2017-02-17T04:37:57.319Z,0
2017-02-17T04:39:54.939Z,0
2017-02-17T04:41:52.394Z,0
2017-02-17T04:43:34.779Z,0
2017-02-17T04:45:42.293Z,0
2017-02-17T04:47:44.495Z,0
2017-02-17T04:49:46.840Z,0
2017-02-17T04:51:44.063Z,0
2017-02-17T04:53:41.286Z,0
2017-02-17T04:55:43.714Z,0
2017-02-17T04:57:45.967Z,0
2017-02-17T04:59:43.208Z,0
2017-02-17T05:01:45.388Z,0
2017-02-17T05:03:47.517Z,0
2017-02-17T05:05:54.792Z,0
2017-02-17T05:07:52.224Z,0
2017-02-17T05:09:54.480Z,0
2017-02-17T05:12:01.835Z,0
2017-02-17T05:13:54.092Z,0
2017-02-17T05:15:56.309Z,0
2017-02-17T05:17:53.859Z,0
2017-02-17T05:20:01.615Z,0
2017-02-17T05:22:03.919Z,0
2017-02-17T05:23:51.217Z,0
2017-02-17T05:25:53.594Z,0
2017-02-17T05:27:50.831Z,0
2017-02-17T05:29:38.084Z,0
2017-02-17T05:31:45.469Z,0
2017-02-17T05:33:57.639Z,0
2017-02-17T05:36:04.890Z,0
2017-02-17T05:37:57.300Z,0
2017-02-17T05:40:04.629Z,0
2017-02-17T05:42:06.980Z,0
2017-02-17T05:43:59.281Z,0
2017-02-17T05:45:56.635Z,0
2017-02-17T05:47:58.904Z,0
2017-02-17T05:49:56.247Z,0
2017-02-17T05:51:58.644Z,0
2017-02-17T05:54:05.942Z,0
2017-02-17T05:56:13.575Z,0
2017-02-17T05:58:06.112Z,0
2017-02-17T06:00:03.421Z,0
2017-02-17T06:02:05.733Z,0
2017-02-17T06:04:08.419Z,0
2017-02-17T06:06:15.663Z,0
2017-02-17T06:08:26.224Z,0
2017-02-17T06:10:38.655Z,0
2017-02-17T06:12:31.139Z,0
2017-02-17T06:14:28.347Z,0
2017-02-17T06:16:30.637Z,0
2017-02-17T06:18:27.913Z,0
2017-02-17T06:20:20.273Z,0
2017-02-17T06:22:27.601Z,0
2017-02-17T06:24:25.051Z,0
2017-02-17T06:26:17.311Z,0
2017-02-17T06:28:14.543Z,5
2017-02-17T06:30:17.015Z,5
2017-02-17T06:32:09.598Z,5
2017-02-17T06:34:02.208Z,5
2017-02-17T06:36:09.397Z,5
2017-02-17T06:38:11.645Z,5
2017-02-17T06:40:03.867Z,5
2017-02-17T06:44:06.595Z,10
2017-02-17T06:46:19.039Z,15
2017-02-17T06:48:26.359Z,20
2017-02-17T06:50:28.602Z,20
2017-02-17T06:52:31.005Z,45
2017-02-17T06:54:28.220Z,35
2017-02-17T06:56:20.657Z,15
2017-02-17T06:58:08.158Z,25
2017-02-17T07:00:20.375Z,30
2017-02-17T07:02:17.852Z,35
2017-02-17T07:04:20.216Z,35
2017-02-17T07:06:27.943Z,30
2017-02-17T07:08:30.761Z,30
2017-02-17T07:10:27.956Z,45
2017-02-17T07:12:30.322Z,45
2017-02-17T07:14:27.655Z,65
2017-02-17T07:16:34.879Z,55
2017-02-17T07:18:27.103Z,55
2017-02-17T07:20:29.455Z,55
2017-02-17T07:22:31.617Z,50
2017-02-17T07:24:28.918Z,50
2017-02-17T07:26:36.163Z,50
2017-02-17T07:28:18.632Z,40
2017-02-17T07:30:21.155Z,35
2017-02-17T07:32:24.918Z,35
2017-02-17T07:34:27.204Z,30
2017-02-17T07:36:19.432Z,40
2017-02-17T07:38:06.712Z,55
2017-02-17T07:39:59.244Z,50
2017-02-17T07:42:06.627Z,50
2017-02-17T07:44:08.931Z,65
2017-02-17T07:46:06.325Z,75
2017-02-17T07:48:03.886Z,65
2017-02-17T07:50:01.053Z,50
2017-02-17T07:52:03.329Z,50
2017-02-17T07:53:55.568Z,60
2017-02-17T07:55:58.034Z,60
2017-02-17T07:57:50.472Z,55
2017-02-17T07:59:48.019Z,75
2017-02-17T08:01:50.269Z,95
2017-02-17T08:03:42.605Z,95
2017-02-17T08:05:49.791Z,75
2017-02-17T08:07:47.073Z,50
2017-02-17T08:09:52.643Z,70
2017-02-17T08:11:45.010Z,50
2017-02-17T08:13:42.254Z,80
2017-02-17T08:15:43.243Z,135
2017-02-17T08:17:52.287Z,75
2017-02-17T08:19:49.873Z,100
2017-02-17T08:21:56.730Z,75
2017-02-17T08:24:04.863Z,95
2017-02-17T08:26:02.160Z,100
2017-02-17T08:27:49.471Z,95
2017-02-17T08:29:52.067Z,80
2017-02-17T08:31:49.630Z,65
2017-02-17T08:33:56.839Z,75
2017-02-17T08:35:44.149Z,80
2017-02-17T08:37:41.392Z,95
2017-02-17T08:39:43.552Z,95
2017-02-17T08:41:45.985Z,115
2017-02-17T08:43:44.650Z,110
2017-02-17T08:45:46.839Z,120
2017-02-17T08:47:59.206Z,145
2017-02-17T08:49:56.448Z,165
2017-02-17T08:51:48.713Z,150
2017-02-17T08:53:46.180Z,155
2017-02-17T08:55:48.509Z,175
2017-02-17T08:57:41.135Z,185
2017-02-17T08:59:43.586Z,200
2017-02-17T09:01:40.809Z,205
2017-02-17T09:03:42.972Z,185
2017-02-17T09:05:50.196Z,185
2017-02-17T09:07:42.482Z,175
2017-02-17T09:09:39.819Z,140
2017-02-17T09:11:37.128Z,140
2017-02-17T09:13:34.396Z,145
2017-02-17T09:15:31.587Z,135
2017-02-17T09:19:19.904Z,120
2017-02-17T09:21:36.191Z,125
2017-02-17T09:23:23.556Z,105
2017-02-17T09:25:35.761Z,95
2017-02-17T09:27:28.004Z,120
2017-02-17T09:29:35.238Z,115
2017-02-17T09:31:27.593Z,140
2017-02-17T09:33:34.969Z,180
2017-02-17T09:35:27.599Z,195
2017-02-17T09:37:29.839Z,200
2017-02-17T09:39:37.371Z,175
2017-02-17T09:41:44.687Z,165
2017-02-17T09:43:47.884Z,155
2017-02-17T09:45:41.675Z,170
2017-02-17T09:47:38.954Z,175
2017-02-17T09:49:21.307Z,180
2017-02-17T09:51:28.564Z,170
2017-02-17T09:53:35.847Z,220
2017-02-17T09:55:23.143Z,215
2017-02-17T09:57:30.414Z,200
2017-02-17T09:59:27.799Z,210
2017-02-17T10:01:20.151Z,225
2017-02-17T10:03:07.404Z,230
2017-02-17T10:05:09.635Z,235
2017-02-17T10:07:21.960Z,250
2017-02-17T10:09:24.850Z,240
2017-02-17T10:11:12.317Z,230
2017-02-17T10:13:19.731Z,225
2017-02-17T10:15:17.093Z,200
2017-02-17T10:17:09.304Z,175
2017-02-17T10:19:11.562Z,190
2017-02-17T10:21:09.061Z,185
2017-02-17T10:23:16.307Z,195
2017-02-17T10:25:18.617Z,170
2017-02-17T10:27:20.932Z,195
2017-02-17T10:29:18.191Z,215
2017-02-17T10:31:20.452Z,205
2017-02-17T10:33:12.925Z,230
2017-02-17T10:35:30.823Z,235
2017-02-17T10:37:33.098Z,200
2017-02-17T10:39:25.362Z,200
2017-02-17T10:41:23.721Z,240
2017-02-17T10:43:30.923Z,250
2017-02-17T10:45:28.346Z,270
2017-02-17T10:47:25.579Z,250
2017-02-17T10:49:28.921Z,295
2017-02-17T10:51:31.143Z,320
2017-02-17T10:53:38.484Z,310
2017-02-17T10:55:35.769Z,300
2017-02-17T10:57:38.016Z,285
2017-02-17T10:59:40.415Z,240
2017-02-17T11:01:47.613Z,240
2017-02-17T11:03:54.797Z,220
2017-02-17T11:05:52.147Z,235
2017-02-17T11:07:49.485Z,240
2017-02-17T11:09:46.735Z,210
2017-02-17T11:11:39.038Z,240
2017-02-17T11:13:31.326Z,290
2017-02-17T11:15:33.679Z,285
2017-02-17T11:17:35.980Z,290
2017-02-17T11:19:38.289Z,300
2017-02-17T11:21:40.600Z,315
2017-02-17T11:23:38.003Z,325
2017-02-17T11:25:39.282Z,340
2017-02-17T11:27:36.929Z,310
2017-02-17T11:29:39.167Z,195
2017-02-17T11:31:41.322Z,225
2017-02-17T11:33:38.580Z,240
2017-02-17T11:35:40.906Z,155
2017-02-17T11:37:43.042Z,160
2017-02-17T11:39:45.418Z,180
2017-02-17T11:41:37.804Z,195
2017-02-17T11:43:35.120Z,210
2017-02-17T11:45:37.423Z,220
2017-02-17T11:47:34.641Z,200
2017-02-17T11:49:26.898Z,245
2017-02-17T11:51:14.201Z,230
2017-02-17T11:53:11.441Z,250
2017-02-17T11:55:03.675Z,245
2017-02-17T11:56:50.935Z,235
2017-02-17T11:58:53.235Z,225
2017-02-17T12:00:45.759Z,225
2017-02-17T12:02:53.185Z,235
2017-02-17T12:05:00.575Z,240
2017-02-17T12:07:08.005Z,230
2017-02-17T12:09:00.439Z,210
2017-02-17T12:11:02.723Z,205
2017-02-17T12:12:45.157Z,200
2017-02-17T12:14:37.686Z,210
2017-02-17T12:16:34.929Z,225
2017-02-17T12:18:27.204Z,225
2017-02-17T12:20:29.455Z,215
2017-02-17T12:22:21.668Z,210
2017-02-17T12:24:29.075Z,210
2017-02-17T12:26:36.375Z,200
2017-02-17T12:28:28.664Z,180
2017-02-17T12:30:21.016Z,185
2017-02-17T12:32:23.383Z,200
2017-02-17T12:34:15.655Z,205
2017-02-17T12:36:13.426Z,220
2017-02-17T12:38:05.966Z,235
2017-02-17T12:39:53.530Z,250
2017-02-17T12:41:56.042Z,265
2017-02-17T12:43:48.324Z,265
2017-02-17T12:45:40.687Z,260
2017-02-17T12:47:53.153Z,265
2017-02-17T12:49:50.634Z,280
2017-02-17T12:51:58.062Z,290
2017-02-17T12:53:50.333Z,270
2017-02-17T12:55:47.538Z,245
2017-02-17T12:57:39.995Z,220
2017-02-17T12:59:42.263Z,200
2017-02-17T13:01:44.501Z,195
2017-02-17T13:03:31.768Z,195
2017-02-17T13:05:29.169Z,200
2017-02-17T13:07:41.328Z,255
2017-02-17T13:09:48.561Z,320
2017-02-17T13:11:46.118Z,335
2017-02-17T13:13:43.451Z,370
2017-02-17T13:15:30.876Z,380
2017-02-17T13:17:33.295Z,340
2017-02-17T13:19:35.665Z,295
2017-02-17T13:21:49.009Z,270
2017-02-17T13:23:51.326Z,235
2017-02-17T13:25:38.724Z,225
2017-02-17T13:27:36.209Z,210
2017-02-17T13:29:38.483Z,220
2017-02-17T13:31:35.826Z,190
2017-02-17T13:33:38.503Z,175
2017-02-17T13:35:30.915Z,185
2017-02-17T13:37:33.438Z,210
2017-02-17T13:39:30.779Z,215
2017-02-17T13:41:38.208Z,205
2017-02-17T13:43:40.533Z,215
2017-02-17T13:45:37.996Z,250
2017-02-17T13:47:35.410Z,240
2017-02-17T13:49:37.914Z,265
2017-02-17T13:51:45.540Z,295
2017-02-17T13:53:47.863Z,285
2017-02-17T13:55:50.301Z,325
2017-02-17T13:57:57.794Z,385
2017-02-17T13:59:55.174Z,385
2017-02-17T14:01:58.352Z,330
2017-02-17T14:04:10.940Z,590
2017-02-17T14:06:03.623Z,465
2017-02-17T14:08:01.082Z,270
2017-02-17T14:10:05.145Z,295
2017-02-17T14:12:02.656Z,255
2017-02-17T14:14:05.129Z,255
2017-02-17T14:16:07.717Z,320
2017-02-17T14:18:10.120Z,235
2017-02-17T14:20:12.664Z,260
2017-02-17T14:22:15.146Z,270
2017-02-17T14:24:12.603Z,315
2017-02-17T14:26:15.204Z,585
2017-02-17T14:28:27.575Z,640
2017-02-17T14:30:29.826Z,430
2017-02-17T14:32:42.010Z,345
2017-02-17T14:34:44.284Z,610
2017-02-17T14:36:50.208Z,1190
2017-02-17T14:38:57.585Z,1185
2017-02-17T14:41:00.197Z,895
2017-02-17T14:42:57.556Z,890
2017-02-17T14:44:59.964Z,860
2017-02-17T14:46:52.548Z,1040
2017-02-17T14:48:50.017Z,695
2017-02-17T14:50:53.988Z,920
2017-02-17T14:53:01.296Z,785
2017-02-17T14:54:58.792Z,670
2017-02-17T14:56:51.142Z,550
2017-02-17T14:58:53.633Z,855
2017-02-17T15:01:06.150Z,585
2017-02-17T15:02:58.667Z,395
2017-02-17T15:04:51.097Z,545
2017-02-17T15:06:48.487Z,530
2017-02-17T15:08:45.830Z,460
2017-02-17T15:10:48.103Z,720
2017-02-17T15:12:35.453Z,645
2017-02-17T15:14:42.695Z,590
2017-02-17T15:16:46.615Z,355
2017-02-17T15:18:48.930Z,630
2017-02-17T15:20:56.644Z,595
2017-02-17T15:22:49.133Z,515
2017-02-17T15:24:56.475Z,490
2017-02-17T15:26:58.757Z,460
2017-02-17T15:28:56.236Z,415
2017-02-17T15:30:53.619Z,310
2017-02-17T15:32:51.131Z,215
2017-02-17T15:34:58.981Z,225
2017-02-17T15:36:56.113Z,250
2017-02-17T15:39:03.478Z,345
2017-02-17T15:41:00.694Z,335
2017-02-17T15:42:58.164Z,335
2017-02-17T15:45:00.471Z,355
2017-02-17T15:46:42.889Z,330
2017-02-17T15:48:35.173Z,185
2017-02-17T15:50:37.528Z,165
2017-02-17T15:52:34.936Z,155
2017-02-17T15:54:37.161Z,150
2017-02-17T15:56:39.644Z,145
2017-02-17T15:58:41.927Z,150
2017-02-17T16:00:49.265Z,150
2017-02-17T16:02:46.515Z,150
2017-02-17T16:04:43.945Z,145
2017-02-17T16:06:51.163Z,135
2017-02-17T16:08:48.966Z,110
2017-02-17T16:10:41.388Z,100
2017-02-17T16:12:38.855Z,85
2017-02-17T16:14:36.161Z,70
2017-02-17T16:16:43.486Z,60
2017-02-17T16:18:46.088Z,45
2017-02-17T16:20:55.214Z,40
2017-02-17T16:22:52.618Z,35
2017-02-17T16:24:57.248Z,30
2017-02-17T16:26:56.361Z,25
2017-02-17T16:29:06.583Z,20
2017-02-17T16:31:16.883Z,15
2017-02-17T16:33:24.763Z,10
2017-02-17T16:35:27.938Z,10
2017-02-17T16:37:31.741Z,10
2017-02-17T16:39:39.596Z,10
2017-02-17T16:41:42.357Z,10
2017-02-17T16:43:45.433Z,5
2017-02-17T16:45:43.613Z,5
2017-02-17T16:47:52.120Z,5
2017-02-17T16:49:49.672Z,0
2017-02-17T16:51:37.180Z,0
2017-02-17T16:53:49.643Z,0
2017-02-17T16:55:47.224Z,0
2017-02-17T16:57:44.542Z,0
2017-02-17T16:59:31.982Z,0
2017-02-17T17:01:39.384Z,0
2017-02-17T17:03:41.741Z,0
2017-02-17T17:05:44.287Z,0
2017-02-17T17:07:46.775Z,0
2017-02-17T17:09:49.202Z,0
2017-02-17T17:11:56.464Z,0
2017-02-17T17:13:48.866Z,0
2017-02-17T17:15:41.377Z,0
2017-02-17T17:17:53.792Z,0
2017-02-17T17:20:01.397Z,0
2017-02-17T17:22:04.156Z,0
2017-02-17T17:24:01.476Z,0
2017-02-17T17:25:53.740Z,0
2017-02-17T17:28:01.175Z,0
2017-02-17T17:29:58.438Z,0
2017-02-17T17:31:50.898Z,0
2017-02-17T17:33:48.393Z,0
2017-02-17T17:35:40.843Z,0
2017-02-17T17:37:38.325Z,0
2017-02-17T17:39:45.752Z,0
2017-02-17T17:41:48.158Z,0
2017-02-17T17:44:00.493Z,0
2017-02-17T17:46:07.990Z,0
2017-02-17T17:48:05.399Z,0
2017-02-17T17:50:07.670Z,0
2017-02-17T17:52:09.862Z,0
2017-02-17T17:54:07.305Z,0
2017-02-17T17:56:05.042Z,0
2017-02-17T17:58:07.377Z,0
2017-02-17T17:59:59.769Z,0
2017-02-17T18:01:42.149Z,0
2017-02-17T18:03:49.436Z,0
2017-02-17T18:05:52.081Z,0
2017-02-17T18:07:49.533Z,0
2017-02-17T18:09:46.871Z,0
2017-02-17T18:11:44.233Z,0
2017-02-17T18:13:41.742Z,0
2017-02-17T18:15:49.072Z,0
2017-02-17T18:17:46.472Z,0
2017-02-17T18:19:53.825Z,0
2017-02-17T18:21:56.384Z,0
2017-02-17T18:24:03.869Z,0
2017-02-17T18:25:56.218Z,0
2017-02-17T18:27:58.664Z,0
2017-02-17T18:30:01.345Z,0
2017-02-17T18:32:03.521Z,0
2017-02-17T18:34:10.996Z,0
2017-02-17T18:36:18.273Z,0
2017-02-17T18:38:20.648Z,0
2017-02-17T18:40:28.078Z,0
2017-02-17T18:42:30.373Z,0
2017-02-17T18:44:32.782Z,0
2017-02-17T18:46:43.434Z,0
2017-02-17T18:48:50.733Z,0
2017-02-17T18:50:38.131Z,0
2017-02-17T18:52:35.397Z,0
2017-02-17T18:54:33.727Z,0
2017-02-17T18:56:36.140Z,0
2017-02-17T18:58:43.414Z,0
2017-02-17T19:00:41.938Z,0
2017-02-17T19:04:40.042Z,0
2017-02-17T19:06:32.381Z,0
2017-02-17T19:08:40.749Z,0
2017-02-17T19:10:53.111Z,0
2017-02-17T19:12:55.575Z,0
2017-02-17T19:14:53.092Z,0
2017-02-17T19:16:41.943Z,0
2017-02-17T19:18:49.281Z,0
2017-02-17T19:20:56.705Z,0
2017-02-17T19:22:54.032Z,0
2017-02-17T19:24:41.783Z,0
2017-02-17T19:26:44.036Z,0
2017-02-17T19:28:46.727Z,0
2017-02-17T19:30:39.169Z,0
2017-02-17T19:32:31.512Z,0
2017-02-17T19:34:39.305Z,0
2017-02-17T19:36:46.618Z,0
2017-02-17T19:38:49.698Z,0
2017-02-17T19:40:37.152Z,0
2017-02-17T19:42:44.786Z,0
2017-02-17T19:44:43.226Z,0
2017-02-17T19:46:40.745Z,0
2017-02-17T19:48:38.265Z,0
2017-02-17T19:50:46.475Z,0
2017-02-17T19:52:49.114Z,0
2017-02-17T19:54:57.211Z,0
2017-02-17T19:56:56.122Z,0
2017-02-17T19:59:03.492Z,0
2017-02-17T20:01:00.997Z,0
2017-02-17T20:02:53.402Z,0
2017-02-17T20:04:55.875Z,0
2017-02-17T20:09:10.864Z,0
2017-02-17T20:11:28.503Z,0
2017-02-17T20:13:35.737Z,0
2017-02-17T20:15:49.472Z,0
2017-02-17T20:17:53.419Z,0
2017-02-17T20:19:55.894Z,0
2017-02-17T20:22:07.695Z,0
2017-02-17T20:24:05.191Z,0
2017-02-17T20:26:03.284Z,0
2017-02-17T20:28:00.046Z,0
2017-02-17T20:30:12.121Z,0
2017-02-17T20:32:26.192Z,0
2017-02-17T20:34:23.635Z,0
2017-02-17T20:36:30.955Z,0
2017-02-17T20:38:33.339Z,0
2017-02-17T20:40:38.863Z,0
2017-02-17T20:42:41.295Z,0
2017-02-17T20:44:44.121Z,0
2017-02-17T20:46:36.508Z,0
2017-02-17T20:48:24.107Z,0
2017-02-17T20:50:26.623Z,0
2017-02-17T20:52:33.949Z,0
2017-02-17T20:54:26.310Z,0
2017-02-17T20:56:23.732Z,0
2017-02-17T20:58:31.119Z,0
2017-02-17T21:00:23.608Z,0
2017-02-17T21:02:25.903Z,0
2017-02-17T21:04:28.256Z,0
2017-02-17T21:06:30.975Z,0
2017-02-17T21:08:24.092Z,0
2017-02-17T21:10:26.346Z,0
2017-02-17T21:12:33.630Z,0
2017-02-17T21:14:20.902Z,0
2017-02-17T21:16:28.291Z,0
2017-02-17T21:18:30.699Z,0
2017-02-17T21:20:33.709Z,0
2017-02-17T21:22:31.353Z,0
2017-02-17T21:24:23.968Z,0
2017-02-17T21:26:36.237Z,0
2017-02-17T21:28:38.657Z,0
2017-02-17T21:30:36.853Z,0
2017-02-17T21:32:41.754Z,0
2017-02-17T21:34:29.753Z,0
2017-02-17T21:36:32.173Z,0
2017-02-17T21:38:39.386Z,0
2017-02-17T21:40:31.873Z,0
2017-02-17T21:42:39.288Z,0
2017-02-17T21:44:36.532Z,0
2017-02-17T21:46:28.834Z,0
2017-02-17T21:48:26.132Z,0
2017-02-17T21:50:28.547Z,0
2017-02-17T21:52:31.134Z,0
2017-02-17T21:54:38.471Z,0
2017-02-17T21:56:30.940Z,0
2017-02-17T21:58:33.253Z,0
2017-02-17T22:00:35.531Z,0
2017-02-17T22:02:32.922Z,0
2017-02-17T22:04:35.463Z,0
2017-02-17T22:06:43.054Z,0
2017-02-17T22:08:45.477Z,0
2017-02-17T22:10:37.822Z,0
2017-02-17T22:12:45.254Z,0
2017-02-17T22:14:43.774Z,0
2017-02-17T22:16:46.276Z,0
2017-02-17T22:18:53.837Z,0
2017-02-17T22:20:51.124Z,0
2017-02-17T22:22:53.517Z,0
2017-02-17T22:24:56.025Z,0
2017-02-17T22:26:53.330Z,0
2017-02-17T22:28:45.656Z,0
2017-02-17T22:30:38.072Z,0
2017-02-17T22:32:35.293Z,0
2017-02-17T22:34:27.761Z,0
2017-02-17T22:36:35.040Z,0
2017-02-17T22:38:37.291Z,0
2017-02-17T22:40:29.713Z,0
2017-02-17T22:42:26.934Z,0
2017-02-17T22:44:34.131Z,0
2017-02-17T22:46:21.699Z,0
2017-02-17T22:48:29.315Z,0
2017-02-17T22:50:41.650Z,0
2017-02-17T22:52:53.935Z,0
2017-02-17T22:55:06.723Z,0
2017-02-17T22:57:03.998Z,0
2017-02-17T22:59:11.231Z,0
2017-02-17T23:01:03.585Z,0
2017-02-17T23:03:10.795Z,0
2017-02-17T23:05:13.285Z,0
2017-02-17T23:07:15.549Z,0
2017-02-17T23:09:13.149Z,0
2017-02-17T23:11:05.377Z,0
2017-02-17T23:13:07.709Z,0
2017-02-17T23:15:10.223Z,0
2017-02-17T23:17:02.587Z,0
2017-02-17T23:19:09.823Z,0
2017-02-17T23:21:17.118Z,0
2017-02-17T23:23:24.445Z,0
2017-02-17T23:25:21.725Z,0
2017-02-17T23:27:24.261Z,0
2017-02-17T23:29:31.854Z,0
2017-02-17T23:31:34.276Z,0
2017-02-17T23:33:31.735Z,0
2017-02-17T23:35:29.001Z,0
2017-02-17T23:37:31.385Z,0
2017-02-17T23:39:33.734Z,0
2017-02-17T23:41:40.973Z,0
2017-02-17T23:43:38.243Z,0
2017-02-17T23:45:35.704Z,0
2017-02-17T23:47:28.124Z,0
2017-02-17T23:49:25.515Z,0
2017-02-17T23:51:32.961Z,0
2017-02-17T23:53:40.264Z,0
2017-02-17T23:55:27.739Z,0
2017-02-17T23:57:40.036Z,0
2017-02-17T23:59:37.413Z,0
